Latest Weather Observations for Newman Airport

IDW60801

Issued at 5:33 pm WST Monday 17 December 2018 (issued every 10 minutes, with the page automatically refreshed every 10 minutes)

About weather observations | Map of weather stations | Latest weather observations for WA | Other Formats
Station Details ID: 007176 Name: NEWMAN AERO Lat: -23.42 Lon: 119.80 Height: 524.0 m
Data from the previous 72 hours. | See also: Recent months at Newman Airport
Date/Time
WST
Temp
°C
App
Temp
°C
Dew
Point
°C
Rel
Hum
%
Delta-T
°C
Wind Press
QNH
hPa
Press
MSL
hPa
Rain since
9am
mm
Dir  Spd
km/h
Gust
km/h
Spd
kts
Gust
kts
17/05:30pm 30.7 25.8 5.2 20 13.7 SW 20 35 11 19 1007.6 1003.1 0.0
17/05:00pm 30.9 26.2 6.0 21 13.6 SSW 20 33 11 18 1007.3 1002.8 0.0
17/04:30pm 31.3 25.4 5.7 20 13.9 SW 26 41 14 22 1007.1 1002.7 0.0
17/04:21pm 30.7 24.4 5.9 21 13.5 SSW 28 46 15 25 1007.0 1002.6 0.0
17/04:00pm 30.3 24.5 6.2 22 13.2 SW 26 46 14 25 1007.3 1002.8 0.0
17/03:56pm 31.1 25.3 6.2 21 13.6 SW 26 46 14 25 1007.3 1002.8 0.0
17/03:30pm 31.3 25.8 5.7 20 13.9 SW 24 37 13 20 1007.3 1002.8 0.0
17/03:00pm 30.5 25.3 5.7 21 13.4 SSW 22 35 12 19 1007.4 1002.9 0.0
17/02:30pm 31.0 25.5 6.1 21 13.6 SW 24 43 13 23 1007.7 1003.2 0.0
17/02:00pm 30.3 24.5 6.2 22 13.2 SW 26 46 14 25 1007.9 1003.4 0.0
17/01:47pm 30.9 24.8 6.7 22 13.3 SW 28 52 15 28 1007.8 1003.3 0.0
17/01:30pm 30.8 25.7 6.0 21 13.5 SW 22 35 12 19 1008.2 1003.7 0.0
17/01:00pm 29.4 24.3 6.1 23 12.6 SSW 22 35 12 19 1008.5 1004.1 0.0
17/12:37pm 29.5 23.9 5.6 22 12.8 SW 24 48 13 26 1008.6 1004.2 0.0
17/12:30pm 30.0 24.5 6.0 22 13.0 WSW 24 41 13 22 1008.8 1004.4 0.0
17/12:00pm 28.6 23.8 5.5 23 12.3 SW 20 39 11 21 1009.0 1004.6 0.0
17/11:30am 27.9 22.7 5.5 24 11.9 SW 22 39 12 21 1009.3 1004.8 0.0
17/11:00am 27.2 21.1 4.9 24 11.7 WSW 26 41 14 22 1009.7 1005.2 0.0
17/10:30am 26.6 20.9 5.0 25 11.3 SW 24 33 13 18 1009.9 1005.4 0.0
17/10:00am 25.2 19.9 4.9 27 10.5 SW 22 37 12 20 1010.0 1005.5 0.0
17/09:30am 24.8 19.8 4.5 27 10.4 WSW 20 32 11 17 1010.1 1005.7 0.0
17/09:00am 24.2 18.9 5.1 29 9.9 SW 22 33 12 18 1010.0 1005.5 0.0
17/08:30am 22.8 17.2 5.3 32 9.0 SW 24 35 13 19 1010.0 1005.5 0.0
17/08:00am 22.2 16.2 5.2 33 8.7 SW 26 37 14 20 1009.9 1005.4 0.0
17/07:30am 21.4 15.8 5.3 35 8.2 SW 24 37 13 20 1009.8 1005.3 0.0
17/07:00am 21.1 15.1 5.5 36 8.0 SW 26 39 14 21 1009.8 1005.3 0.0
17/06:30am 20.6 15.1 4.2 34 8.1 SW 22 32 12 17 1009.4 1004.9 0.0
17/06:00am 20.3 16.0 3.5 33 8.2 SW 15 20 8 11 1009.1 1004.7 0.0
17/05:30am 19.8 15.2 3.9 35 7.8 SW 17 22 9 12 1008.8 1004.4 0.0
17/05:00am 19.9 15.4 4.4 36 7.7 WSW 17 24 9 13 1008.4 1004.0 0.0
17/04:30am 20.4 16.1 5.2 37 7.7 WSW 17 26 9 14 1008.0 1003.5 0.0
17/04:00am 20.9 16.6 5.3 36 7.9 WSW 17 28 9 15 1007.6 1003.1 0.0
17/03:30am 21.4 16.5 5.3 35 8.2 SW 20 28 11 15 1007.1 1002.7 0.0
17/03:00am 21.9 17.8 6.2 36 8.2 SW 17 32 9 17 1006.9 1002.5 0.0
17/02:30am 22.4 17.8 6.6 36 8.3 WSW 20 30 11 16 1006.7 1002.3 0.0
17/02:00am 23.1 18.5 6.4 34 8.8 WSW 20 32 11 17 1006.4 1001.9 0.0
17/01:30am 23.5 19.1 4.9 30 9.5 WSW 17 24 9 13 1006.3 1001.8 0.0
17/01:00am 23.4 20.2 5.3 31 9.4 WSW 11 15 6 8 1006.2 1001.7 0.0
17/12:30am 24.0 20.5 5.4 30 9.6 SW 13 17 7 9 1006.3 1001.8 0.0
17/12:00am 24.9 20.0 5.2 28 10.3 SW 20 28 11 15 1006.4 1001.9 0.0
 
Date/Time
WST
Temp
°C
App
Temp
°C
Dew
Point
°C
Rel
Hum
%
Delta-T
°C
Wind Press
QNH
hPa
Press
MSL
hPa
Rain since
9am
mm
Dir  Spd
km/h
Gust
km/h
Spd
kts
Gust
kts
16/11:30pm 25.3 20.7 5.5 28 10.4 SW 19 28 10 15 1006.4 1001.9 0.0
16/11:00pm 25.7 20.8 5.3 27 10.7 SW 20 30 11 16 1006.3 1001.8 0.0
16/10:30pm 26.2 21.3 5.2 26 11.0 SW 20 30 11 16 1006.1 1001.6 0.0
16/10:00pm 27.0 21.0 3.5 22 12.0 WSW 24 35 13 19 1006.0 1001.5 0.0
16/09:30pm 27.8 21.1 1.3 18 13.1 WSW 26 41 14 22 1005.9 1001.4 0.0
16/09:00pm 28.4 21.1 0.2 16 13.8 WSW 28 39 15 21 1005.7 1001.2 0.0
16/08:30pm 28.9 22.2 -1.2 14 14.3 WSW 24 37 13 20 1005.4 1000.9 0.0
16/08:15pm 29.2 21.8 -1.0 14 14.5 WSW 28 46 15 25 1005.1 1000.7 0.0
16/08:00pm 29.5 22.7 -1.8 13 14.9 WSW 24 37 13 20 1004.9 1000.5 0.0
16/07:30pm 30.2 23.3 -2.3 12 15.3 WSW 24 35 13 19 1004.4 999.9 0.0
16/07:00pm 31.0 23.5 -1.7 12 15.7 WSW 28 46 15 25 1003.9 999.4 0.0
16/06:30pm 32.0 23.6 -2.1 11 16.3 WSW 32 43 17 23 1003.4 998.9 0.0
16/06:09pm 32.8 25.3 -1.5 11 16.7 WSW 28 48 15 26 1003.1 998.7 0.0
16/06:00pm 33.2 24.8 -1.2 11 16.9 WSW 33 44 18 24 1003.1 998.7 0.0
16/05:30pm 34.7 26.8 -1.4 10 17.8 W 30 43 16 23 1002.6 998.1 0.0
16/05:00pm 36.0 29.0 -0.4 10 18.5 WSW 26 39 14 21 1002.3 997.8 0.0
16/04:30pm 36.2 28.7 1.1 11 18.2 W 30 43 16 23 1002.2 997.7 0.0
16/04:00pm 36.4 28.5 1.2 11 18.4 WSW 32 43 17 23 1002.3 997.8 0.0
16/03:30pm 36.5 30.0 2.5 12 18.0 WSW 26 44 14 24 1002.5 998.0 0.0
16/03:00pm 36.8 29.8 3.9 13 17.9 WSW 30 41 16 22 1002.6 998.1 0.0
16/02:30pm 36.8 31.5 2.8 12 18.2 WNW 20 43 11 23 1002.9 998.4 0.0
16/02:18pm 37.8 31.6 2.3 11 18.9 WNW 24 48 13 26 1003.0 998.6 0.0
16/02:00pm 36.6 31.2 2.6 12 18.1 NW 20 35 11 19 1003.6 999.1 0.0
16/01:30pm 36.8 30.3 2.8 12 18.2 WNW 26 48 14 26 1004.0 999.5 0.0
16/01:00pm 35.7 31.6 7.7 18 16.1 WNW 19 30 10 16 1004.4 999.9 0.0
16/12:30pm 34.6 29.9 7.6 19 15.4 W 22 41 12 22 1005.0 1000.6 0.0
16/12:00pm 33.4 30.5 8.1 21 14.5 WNW 13 20 7 11 1005.6 1001.1 0.0
16/11:30am 32.8 28.4 7.6 21 14.2 W 20 32 11 17 1006.2 1001.7 0.0
16/11:00am 32.2 28.2 8.4 23 13.6 W 19 33 10 18 1006.5 1002.1 0.0
16/10:30am 32.5 28.6 8.7 23 13.6 W 19 30 10 16 1006.8 1002.4 0.0
16/10:00am 31.0 27.2 9.8 27 12.3 WSW 20 33 11 18 1007.0 1002.6 0.0
16/09:30am 30.5 27.2 9.4 27 12.1 SW 17 32 9 17 1007.0 1002.6 0.0
16/09:00am 30.3 27.1 9.8 28 11.9 WSW 17 28 9 15 1007.3 1002.8 0.0
16/08:30am 29.3 25.7 9.9 30 11.2 SW 19 28 10 15 1007.3 1002.8 0.0
16/08:00am 28.7 24.9 9.9 31 10.8 SW 20 30 11 16 1007.4 1002.9 0.0
16/07:30am 27.8 23.7 10.1 33 10.1 SW 22 30 12 16 1007.4 1002.9 0.0
16/07:00am 27.2 22.6 9.5 33 10.0 SW 24 33 13 18 1007.1 1002.7 0.0
16/06:30am 26.7 22.9 9.1 33 9.9 WSW 19 28 10 15 1006.8 1002.4 0.0
16/06:00am 25.6 22.2 9.0 35 9.3 WSW 17 20 9 11 1006.4 1001.9 0.0
16/05:30am 24.8 22.0 8.7 36 8.9 WSW 13 17 7 9 1006.1 1001.6 0.0
16/05:00am 24.9 22.2 8.8 36 8.9 WSW 13 15 7 8 1005.7 1001.2 0.0
16/04:30am 25.5 22.7 8.5 34 9.4 WSW 13 20 7 11 1005.0 1000.6 0.0
16/04:00am 25.9 23.1 8.4 33 9.7 SW 13 19 7 10 1004.6 1000.1 0.0
16/03:30am 26.0 23.1 8.0 32 9.9 WSW 13 19 7 10 1004.4 999.9 0.0
16/03:00am 26.5 23.5 7.5 30 10.4 WSW 13 17 7 9 1004.4 999.9 0.0
16/02:30am 27.0 23.8 6.9 28 10.9 WSW 13 15 7 8 1004.1 999.6 0.0
16/02:00am 27.3 24.4 6.7 27 11.2 WSW 11 15 6 8 1004.1 999.6 0.0
16/01:30am 28.0 24.7 6.2 25 11.7 WSW 13 17 7 9 1004.0 999.5 0.0
16/01:00am 28.8 25.3 5.6 23 12.5 WSW 13 19 7 10 1004.2 999.7 0.0
16/12:30am 29.2 26.4 5.3 22 12.7 WSW 9 15 5 8 1004.3 999.8 0.0
16/12:00am 30.2 26.6 4.8 20 13.6 WSW 13 17 7 9 1004.4 999.9 0.0
 
Date/Time
WST
Temp
°C
App
Temp
°C
Dew
Point
°C
Rel
Hum
%
Delta-T
°C
Wind Press
QNH
hPa
Press
MSL
hPa
Rain since
9am
mm
Dir  Spd
km/h
Gust
km/h
Spd
kts
Gust
kts
15/11:30pm 31.0 27.0 4.7 19 14.0 SW 15 28 8 15 1004.5 1000.0 0.0
15/11:00pm 31.4 27.7 4.2 18 14.5 WSW 13 19 7 10 1004.4 999.9 0.0
15/10:30pm 32.3 27.2 3.3 16 15.2 WSW 19 24 10 13 1004.4 999.9 0.0
15/10:00pm 32.8 27.5 1.8 14 16.0 WSW 19 26 10 14 1004.2 999.7 0.0
15/09:30pm 33.3 28.3 -1.1 11 16.9 WSW 15 22 8 12 1004.1 999.6 0.0
15/09:00pm 33.4 28.8 -3.7 9 17.5 WSW 11 17 6 9 1003.8 999.3 0.0
15/08:30pm 34.4 29.5 -3.0 9 17.9 WSW 13 20 7 11 1003.4 998.9 0.0
15/08:00pm 35.4 29.9 -2.3 9 18.5 WSW 17 28 9 15 1003.0 998.6 0.0
15/07:30pm 36.2 30.2 -1.7 9 18.8 WSW 20 30 11 16 1002.5 998.0 0.0
15/07:00pm 37.1 31.0 0.4 10 19.0 WSW 22 35 12 19 1001.9 997.4 0.0
15/06:30pm 38.3 31.6 1.3 10 19.5 WSW 26 35 14 19 1001.5 997.0 0.0
15/06:00pm 39.9 35.1 2.5 10 20.3 WSW 17 30 9 16 1001.0 996.5 0.0
15/05:30pm 41.2 36.3 2.0 9 21.2 WSW 17 32 9 17 1000.6 996.1 0.0
15/05:00pm 42.4 35.6 -5.1 5 23.4 NW 22 33 12 18 1000.3 995.8 0.0
15/04:30pm 42.2 35.3 -2.8 6 22.8 NNW 24 39 13 21 1000.3 995.8 0.0
15/04:00pm 42.1 36.4 -0.8 7 22.4 NW 19 39 10 21 1000.4 995.9 0.0
15/03:30pm 42.5 35.6 -2.6 6 22.9 NNW 24 44 13 24 1000.7 996.2 0.0
15/03:00pm 42.5 36.6 -0.5 7 22.6 NNW 20 37 11 20 1001.0 996.5 0.0
15/02:30pm 42.3 35.2 1.2 8 22.1 NNW 28 43 15 23 1001.6 997.1 0.0
15/02:00pm 41.1 35.2 2.0 9 21.2 NW 22 37 12 20 1002.2 997.7 0.0
15/01:30pm 40.8 36.9 3.2 10 20.6 NNW 13 33 7 18 1002.6 998.1 0.0
15/01:00pm 39.2 35.1 4.6 12 19.3 NNW 15 28 8 15 1003.3 998.8 0.0
15/12:30pm 39.4 34.4 4.7 12 19.3 N 20 35 11 19 1003.9 999.4 0.0
15/12:00pm 38.8 34.5 5.4 13 18.8 WNW 17 28 9 15 1004.5 1000.0 0.0
15/11:30am 37.8 34.9 4.7 13 18.3 NNW 9 26 5 14 1004.8 1000.4 0.0
15/11:00am 37.0 33.3 6.1 15 17.4 WNW 15 22 8 12 1005.4 1000.9 0.0
15/10:30am 36.8 34.7 5.9 15 17.3 E 6 13 3 7 1005.9 1001.4 0.0
15/10:00am 35.3 33.2 5.7 16 16.4 E 6 11 3 6 1006.4 1001.9 0.0
15/09:30am 34.3 32.6 7.4 19 15.2 SSW 6 13 3 7 1006.7 1002.3 0.0
15/09:00am 34.3 32.0 7.4 19 15.3 S 9 15 5 8 1007.0 1002.6 0.0
15/08:30am 32.5 30.3 8.0 22 13.9 SSW 9 13 5 7 1007.1 1002.7 0.0
15/08:00am 31.9 28.6 8.2 23 13.5 SW 15 20 8 11 1007.3 1002.8 0.0
15/07:30am 31.3 27.4 7.1 22 13.4 WSW 17 24 9 13 1007.1 1002.7 0.0
15/07:00am 31.0 27.0 4.7 19 14.1 WSW 15 20 8 11 1006.8 1002.4 0.0
15/06:30am 29.5 25.5 2.7 18 13.7 W 13 20 7 11 1006.8 1002.4 0.0
15/06:00am 27.6 24.4 3.3 21 12.4 NNW 9 11 5 6 1006.5 1002.1 0.0
15/05:30am 27.0 23.9 3.5 22 12.0 NNE 9 13 5 7 1006.1 1001.6 0.0
15/05:00am 26.7 23.7 1.9 20 12.3 N 7 7 4 4 1005.9 1001.4 0.0
15/04:30am 27.4 23.9 1.0 18 12.9 NNE 9 11 5 6 1005.7 1001.2 0.0
15/04:00am 28.6 25.1 1.2 17 13.6 NE 9 15 5 8 1005.3 1000.8 0.0
15/03:30am 29.3 25.4 0.9 16 14.1 ENE 11 15 6 8 1005.0 1000.6 0.0
15/03:00am 29.3 25.5 1.7 17 13.9 E 11 15 6 8 1004.9 1000.5 0.0
15/02:30am 29.7 25.8 1.2 16 14.2 ENE 11 13 6 7 1005.0 1000.6 0.0
15/02:00am 30.2 26.2 0.7 15 14.7 NE 11 13 6 7 1005.0 1000.6 0.0
15/01:30am 31.1 26.3 0.5 14 15.2 NE 15 20 8 11 1005.1 1000.7 0.0
15/01:00am 32.3 26.6 0.4 13 16.0 ENE 20 26 11 14 1005.5 1001.0 0.0
15/12:30am 33.0 26.8 -0.2 12 16.5 E 22 32 12 17 1005.7 1001.2 0.0
15/12:00am 33.6 27.9 0.3 12 16.8 ENE 20 26 11 14 1006.2 1001.7 0.0
 
Date/Time
WST
Temp
°C
App
Temp
°C
Dew
Point
°C
Rel
Hum
%
Delta-T
°C
Wind Press
QNH
hPa
Press
MSL
hPa
Rain since
9am
mm
Dir  Spd
km/h
Gust
km/h
Spd
kts
Gust
kts
14/11:30pm 34.3 28.8 0.8 12 17.1 E 19 26 10 14 1006.7 1002.3 0.0
14/11:00pm 34.3 30.7 0.8 12 17.1 SE 9 15 5 8 1006.9 1002.5 0.0
14/10:30pm 35.1 29.5 0.2 11 17.7 NE 19 28 10 15 1006.3 1001.8 0.0
14/10:00pm 34.9 30.5 0.1 11 17.7 NE 13 20 7 11 1006.2 1001.7 0.0
14/09:30pm 34.9 30.6 1.3 12 17.3 NE 13 20 7 11 1006.2 1001.7 0.0
14/09:00pm 35.0 30.8 1.4 12 17.4 NE 13 15 7 8 1005.9 1001.4 0.0
14/08:30pm 35.7 31.4 0.7 11 18.0 ENE 13 17 7 9 1006.0 1001.5 0.0
14/08:00pm 36.3 32.0 1.2 11 18.3 ENE 13 17 7 9 1005.8 1001.3 0.0
14/07:30pm 37.1 33.1 0.4 10 18.9 ENE 11 15 6 8 1005.8 1001.3 0.0
14/07:00pm 37.3 33.7 0.6 10 19.0 NE 9 13 5 7 1005.7 1001.2 0.0
14/06:30pm 38.4 33.9 0.0 9 19.8 ENE 13 17 7 9 1005.7 1001.2 0.0
14/06:00pm 38.8 34.8 0.3 9 20.1 NE 11 19 6 10 1005.7 1001.2 0.0

Other Formats:

Comma delimited format used in spreadsheet applications
http://www.bom.gov.au/fwo/IDW60801/IDW60801.94317.axf

JavaScript Object Notation format (JSON) in row-major order
http://www.bom.gov.au/fwo/IDW60801/IDW60801.94317.json